Time;durP1;ratioP1;P1;durP2;ratioP2;P2;SDS_P1;SDS_P2;PMS_P1;PMS_P2;Temp;Humidity;BMP_temperature;BMP_pressure;BME280_temperature;BME280_humidity;BME280_pressure;Samples;Min_cycle;Max_cycle;Signal;HPM_P1;HPM_P2
2022/01/24 00:01:57;;;;;;;10.47;6.87;;;2.90;84.10;;;3.38;63.07;99184.75;5087937;28;20059;-37
2022/01/24 00:04:26;;;;;;;11.00;6.77;;;2.90;84.30;;;3.38;62.85;99181.28;5088511;28;20044;-37
2022/01/24 00:06:53;;;;;;;12.30;7.50;;;3.00;84.10;;;3.41;63.35;99183.75;5088096;28;20056;-37
2022/01/24 00:09:21;;;;;;;14.20;8.60;;;3.00;84.10;;;3.38;62.65;99170.75;5087881;28;20070;-37
2022/01/24 00:17:17;;;;;;;12.07;6.90;;;2.90;84.30;;;3.38;62.98;99171.59;5087302;28;20270;-37
2022/01/24 00:28:04;;;;;;;10.23;6.73;;;2.80;84.50;;;3.27;62.58;99156.34;5087899;28;20052;-37
2022/01/24 00:30:32;;;;;;;11.00;7.23;;;2.80;84.60;;;3.23;62.52;99157.44;5070480;28;20241;-37
2022/01/24 00:33:00;;;;;;;10.63;7.30;;;2.80;84.50;;;3.20;62.69;99157.59;5088002;28;20250;-37
2022/01/24 00:35:30;;;;;;;12.20;7.10;;;2.70;84.90;;;3.17;62.69;99160.38;5087223;28;20342;-37
2022/01/24 00:38:00;;;;;;;11.20;7.57;;;2.70;85.10;;;3.18;62.72;99150.69;5087392;28;20048;-37
2022/01/24 00:40:37;;;;;;;11.60;7.30;;;2.70;85.10;;;3.17;63.28;99154.25;5086362;28;20044;-37
2022/01/24 00:43:18;;;;;;;11.80;8.17;;;2.70;85.00;;;3.12;62.97;99160.63;5087985;28;20243;-37
2022/01/24 00:57:04;;;;;;;12.13;8.33;;;2.40;86.70;;;2.93;63.12;99138.78;5086468;28;20043;-37
2022/01/24 00:59:32;;;;;;;12.50;7.93;;;2.40;86.80;;;2.93;63.46;99147.53;5087264;28;20274;-37
2022/01/24 01:02:00;;;;;;;13.40;8.00;;;2.40;87.00;;;2.92;62.92;99152.84;5087348;28;20044;-37
2022/01/24 01:04:39;;;;;;;14.13;10.20;;;2.40;87.00;;;2.91;63.35;99143.28;5086779;28;20429;-37
2022/01/24 01:07:07;;;;;;;12.10;8.30;;;2.50;87.10;;;2.93;63.64;99155.41;5087797;28;20338;-37
2022/01/24 01:20:58;;;;;;;17.77;10.27;;;2.30;87.70;;;2.78;63.27;99169.31;5085608;28;20352;-37
2022/01/24 01:23:25;;;;;;;14.30;10.53;;;2.30;88.00;;;2.75;63.59;99170.34;5086522;28;20372;-37
2022/01/24 01:25:54;;;;;;;14.53;9.77;;;2.30;88.50;;;2.73;63.61;99171.31;5087090;28;20054;-37
2022/01/24 01:28:23;;;;;;;16.53;10.87;;;2.20;88.60;;;2.70;63.97;99168.84;5087010;28;20048;-37
2022/01/24 01:30:55;;;;;;;18.70;10.93;;;2.20;89.00;;;2.66;64.04;99170.78;5085642;28;20044;-37
2022/01/24 01:36:07;;;;;;;16.87;9.57;;;2.20;89.60;;;2.65;63.60;99173.47;5085978;28;20056;-37
2022/01/24 01:54:54;;;;;;;14.40;8.90;;;1.90;89.30;;;2.45;63.97;99171.81;5091010;28;20054;-37
2022/01/24 01:57:23;;;;;;;14.40;9.90;;;1.90;89.60;;;2.43;63.89;99168.41;5090432;28;20052;-37
2022/01/24 01:59:51;;;;;;;16.40;9.67;;;1.90;89.30;;;2.42;63.97;99167.53;5090774;28;20056;-37
2022/01/24 02:02:19;;;;;;;17.87;10.53;;;1.90;89.60;;;2.40;63.59;99171.16;5073207;28;20063;-37
2022/01/24 02:04:47;;;;;;;15.60;9.27;;;1.90;89.40;;;2.37;63.87;99172.16;5089642;28;20242;-37
2022/01/24 02:07:17;;;;;;;18.20;10.47;;;1.90;89.30;;;2.33;63.81;99170.63;5091546;28;20048;-37
2022/01/24 02:09:46;;;;;;;16.67;10.23;;;1.80;89.30;;;2.27;63.69;99169.13;5089895;28;20052;-37
2022/01/24 02:12:17;;;;;;;24.33;10.50;;;1.80;89.10;;;2.24;63.54;99176.28;5090963;28;20364;-37
2022/01/24 02:14:55;;;;;;;19.07;11.27;;;1.70;89.30;;;2.20;63.95;99161.59;5090328;28;20246;-37
2022/01/24 02:17:40;;;;;;;18.97;10.83;;;1.70;89.40;;;2.15;63.86;99167.03;5073176;28;20052;-37
2022/01/24 02:20:38;;;;;;;15.40;9.77;;;1.60;89.70;;;2.12;63.67;99161.94;5074873;28;20052;-37
2022/01/24 02:23:21;;;;;;;18.83;9.33;;;1.60;90.20;;;2.12;64.24;99161.94;5089644;28;20055;-37
2022/01/24 02:25:54;;;;;;;12.63;7.77;;;1.60;90.80;;;2.11;63.94;99169.00;5088663;28;20062;-37
2022/01/24 02:28:24;;;;;;;10.82;7.35;;;1.60;91.10;;;2.08;64.09;99160.38;5073067;28;20060;-38
2022/01/24 02:33:25;;;;;;;12.10;7.80;;;1.50;90.70;;;2.03;64.13;99160.59;5089802;28;20555;-37
2022/01/24 02:35:53;;;;;;;12.37;7.50;;;1.50;90.80;;;1.99;64.01;99148.50;5089502;28;20411;-37
2022/01/24 02:49:35;;;;;;;12.27;6.50;;;1.40;91.40;;;1.90;64.08;99148.94;5089587;28;20070;-37
2022/01/24 02:52:07;;;;;;;10.27;7.00;;;1.40;92.00;;;1.92;64.54;99149.72;5089483;28;20361;-37
2022/01/24 02:54:38;;;;;;;11.20;8.00;;;1.40;92.30;;;1.90;64.54;99147.19;5089118;28;20066;-37
2022/01/24 02:57:09;;;;;;;11.90;7.43;;;1.40;91.80;;;1.89;63.92;99142.00;5088766;28;20074;-37
2022/01/24 02:59:37;;;;;;;11.30;6.70;;;1.40;92.10;;;1.91;64.53;99143.63;5087317;28;20056;-37
2022/01/24 03:02:05;;;;;;;13.10;7.17;;;1.40;92.00;;;1.91;64.51;99145.41;5089253;28;20048;-37
2022/01/24 03:04:37;;;;;;;12.50;7.50;;;1.50;91.70;;;1.92;64.45;99144.47;5088554;28;20184;-37
2022/01/24 03:07:05;;;;;;;11.50;7.47;;;1.50;92.20;;;1.93;64.60;99140.91;5089701;28;20052;-37
2022/01/24 03:09:34;;;;;;;11.83;6.83;;;1.50;92.80;;;1.90;64.43;99138.44;5089689;28;20042;-37
2022/01/24 03:12:13;;;;;;;10.43;7.07;;;1.40;91.40;;;1.90;64.48;99134.03;5089027;28;20059;-37
2022/01/24 03:14:41;;;;;;;11.77;6.73;;;1.40;92.50;;;1.87;64.39;99128.91;5088158;28;20097;-37
2022/01/24 03:17:09;;;;;;;9.43;6.57;;;1.40;92.60;;;1.85;64.56;99125.50;5089958;28;20044;-37
2022/01/24 03:19:36;;;;;;;10.93;6.23;;;1.40;92.40;;;1.87;64.67;99126.28;5087386;28;20056;-37
2022/01/24 03:22:04;;;;;;;12.07;7.07;;;1.40;91.80;;;1.84;64.60;99121.19;5087968;28;20047;-37
2022/01/24 03:24:32;;;;;;;8.87;6.40;;;1.40;92.30;;;1.83;64.32;99118.63;5071823;28;20074;-37
2022/01/24 03:27:00;;;;;;;9.37;5.67;;;1.30;91.60;;;1.79;64.34;99112.66;5088098;28;20048;-37
2022/01/24 03:29:28;;;;;;;9.47;5.83;;;1.30;92.00;;;1.77;64.51;99107.47;5088204;28;20549;-37
2022/01/24 03:31:55;;;;;;;12.33;6.73;;;1.30;92.00;;;1.76;64.68;99104.91;5088376;28;20044;-37
2022/01/24 03:34:25;;;;;;;10.50;6.50;;;1.30;91.70;;;1.69;64.43;99107.00;5087763;28;20355;-36
2022/01/24 03:36:53;;;;;;;10.30;7.77;;;1.20;91.40;;;1.69;64.28;99112.25;5089911;28;20376;-37
2022/01/24 03:39:21;;;;;;;11.43;7.77;;;1.20;92.20;;;1.67;64.73;99124.59;5088619;28;20054;-37
2022/01/24 03:41:49;;;;;;;12.87;7.23;;;1.20;92.30;;;1.63;64.62;99122.16;5088561;28;20048;-37
2022/01/24 03:44:18;;;;;;;12.13;7.33;;;1.10;92.30;;;1.60;64.54;99110.03;5088059;28;20086;-37
2022/01/24 03:46:49;;;;;;;15.97;9.60;;;1.10;92.90;;;1.62;64.74;99117.84;5087416;28;20070;-36
2022/01/24 03:50:03;;;;;;;14.13;8.43;;;1.10;93.40;;;1.64;64.88;99118.63;5088738;28;20048;-37
2022/01/24 03:52:06;;;;;;;12.03;7.70;;;1.20;93.30;;;1.66;64.89;99111.53;5077144;28;20117;-37
2022/01/24 03:54:34;;;;;;;11.70;7.73;;;1.20;92.80;;;1.66;64.78;99117.63;5087654;28;20253;-37
2022/01/24 03:57:04;;;;;;;12.90;8.07;;;1.20;93.30;;;1.67;64.87;99113.25;5088244;28;20062;-37
2022/01/24 03:59:32;;;;;;;12.50;8.43;;;1.20;93.20;;;1.64;64.64;99108.13;5089029;28;20048;-36
2022/01/24 04:02:00;;;;;;;13.63;9.17;;;1.20;93.00;;;1.64;64.81;99102.88;5088119;28;20040;-37
2022/01/24 04:04:30;;;;;;;11.87;7.37;;;1.20;93.20;;;1.64;64.82;99098.47;5087362;28;20054;-37
2022/01/24 04:06:57;;;;;;;14.23;8.50;;;1.20;93.40;;;1.65;65.08;99102.81;5087512;28;20060;-37
2022/01/24 04:09:25;;;;;;;10.27;8.13;;;1.20;93.00;;;1.66;64.34;99112.38;5086718;28;20056;-37
2022/01/24 04:11:56;;;;;;;11.93;7.93;;;1.20;93.00;;;1.66;64.55;99108.91;5088005;28;20048;-37
2022/01/24 04:14:56;;;;;;;11.40;7.70;;;1.20;92.70;;;1.63;64.61;99111.66;5087806;28;20054;-37
2022/01/24 04:17:35;;;;;;;10.63;6.70;;;1.20;91.90;;;1.59;64.58;99110.97;5086972;28;20052;-37
2022/01/24 04:22:53;;;;;;;11.20;6.87;;;1.10;93.60;;;1.56;64.72;99109.31;5088316;28;20404;-37
2022/01/24 04:25:23;;;;;;;12.17;6.87;;;1.10;93.90;;;1.55;65.09;99107.63;5087774;28;20554;-37
2022/01/24 04:27:54;;;;;;;10.00;6.07;;;1.10;94.80;;;1.53;65.28;99106.84;5085617;28;20366;-37
2022/01/24 04:30:27;;;;;;;10.47;7.13;;;1.10;94.90;;;1.53;65.14;99114.72;5088008;28;20350;-37
2022/01/24 04:32:55;;;;;;;12.03;7.33;;;1.10;95.20;;;1.52;65.08;99113.00;5086722;28;20358;-37
2022/01/24 04:35:23;;;;;;;10.93;6.80;;;1.10;95.40;;;1.52;65.07;99115.63;5087718;28;20052;-37
2022/01/24 04:37:50;;;;;;;9.90;7.27;;;1.10;95.20;;;1.53;65.42;99111.22;5085834;28;20071;-37
2022/01/24 04:40:18;;;;;;;9.47;6.73;;;1.10;95.60;;;1.53;64.89;99111.22;5087085;28;20081;-37
2022/01/24 04:42:52;;;;;;;12.30;6.97;;;1.10;95.80;;;1.54;65.21;99103.28;5084937;28;20047;-36
2022/01/24 04:45:54;;;;;;;11.18;6.40;;;1.10;95.20;;;1.52;65.42;99104.28;5085452;28;20044;-36
2022/01/24 04:51:28;;;;;;;10.73;8.13;;;1.00;95.50;;;1.51;65.19;99108.69;5086850;28;20230;-36
2022/01/24 04:56:38;;;;;;;11.83;8.00;;;1.00;96.00;;;1.46;65.40;99118.50;5087365;28;20048;-37
2022/01/24 04:59:07;;;;;;;14.13;8.27;;;1.00;96.20;;;1.45;65.59;99115.94;5084820;28;20067;-37
2022/01/24 05:01:36;;;;;;;11.10;7.47;;;1.00;97.10;;;1.46;65.16;99123.75;5086640;28;20040;-36
2022/01/24 05:04:04;;;;;;;14.07;7.60;;;1.00;97.00;;;1.45;65.26;99126.44;5085516;28;20047;-37
2022/01/24 05:06:32;;;;;;;11.47;6.50;;;1.00;97.10;;;1.43;65.14;99128.28;5086336;28;20056;-37
2022/01/24 05:09:00;;;;;;;11.50;7.13;;;1.00;97.00;;;1.44;65.16;99124.75;5086373;28;20056;-37
2022/01/24 05:11:50;;;;;;;13.20;7.33;;;1.00;97.00;;;1.42;65.28;99119.56;5085254;28;20524;-37
2022/01/24 05:25:24;;;;;;;11.07;7.37;;;0.70;98.70;;;1.28;65.80;99135.06;5086551;28;20036;-37
2022/01/24 05:27:52;;;;;;;12.77;7.67;;;0.80;98.90;;;1.26;65.33;99129.91;5086858;28;20453;-37
2022/01/24 05:30:20;;;;;;;10.73;7.57;;;0.80;98.30;;;1.28;65.37;99132.44;5087014;28;20036;-37
2022/01/24 05:32:47;;;;;;;11.00;7.50;;;0.80;98.40;;;1.29;65.51;99135.00;5086128;28;20055;-37
2022/01/24 05:35:15;;;;;;;13.40;8.23;;;0.80;97.80;;;1.29;65.45;99128.91;5085963;28;20059;-36
2022/01/24 05:37:43;;;;;;;11.80;7.67;;;0.80;97.30;;;1.28;65.69;99130.69;5086269;28;20048;-37
2022/01/24 05:40:11;;;;;;;12.07;7.87;;;0.80;97.20;;;1.29;65.78;99134.16;5086113;28;20110;-37
2022/01/24 05:42:39;;;;;;;11.97;7.40;;;0.80;96.90;;;1.27;65.75;99136.84;5085755;28;20044;-37
2022/01/24 05:45:08;;;;;;;12.87;8.17;;;0.80;97.00;;;1.27;65.17;99136.00;5086524;28;20044;-37
2022/01/24 05:47:36;;;;;;;11.37;7.50;;;0.80;96.80;;;1.25;65.06;99128.19;5085247;28;20048;-37
2022/01/24 05:50:05;;;;;;;10.03;6.87;;;0.80;96.50;;;1.24;65.23;99128.25;5084754;28;20052;-37
2022/01/24 05:52:34;;;;;;;10.70;6.47;;;0.80;96.80;;;1.24;65.52;99131.75;5085228;28;20046;-37
2022/01/24 05:55:05;;;;;;;12.17;7.50;;;0.80;96.70;;;1.23;65.18;99122.16;5086109;28;20048;-37
2022/01/24 05:57:34;;;;;;;13.70;6.73;;;0.70;96.50;;;1.23;65.29;99130.03;5086877;28;20044;-37
2022/01/24 06:00:04;;;;;;;12.37;7.13;;;0.80;96.90;;;1.24;65.68;99134.38;5086808;28;20364;-36
2022/01/24 06:02:40;;;;;;;12.07;8.23;;;0.80;97.00;;;1.22;65.65;99133.53;5086307;28;20048;-37
2022/01/24 06:05:08;;;;;;;10.83;7.13;;;0.70;96.60;;;1.23;65.38;99134.41;5085315;28;20048;-37
2022/01/24 06:07:36;;;;;;;12.80;7.70;;;0.80;96.90;;;1.21;65.66;99137.09;5085324;28;20052;-37
2022/01/24 06:10:06;;;;;;;12.67;7.43;;;0.70;96.30;;;1.18;65.25;99134.59;5084740;28;20059;-36
2022/01/24 06:12:34;;;;;;;13.73;8.13;;;0.70;96.60;;;1.16;65.26;99136.44;5086086;28;20253;-37
2022/01/24 06:15:03;;;;;;;14.07;8.27;;;0.70;97.10;;;1.18;65.25;99138.09;5067985;28;20078;-37
2022/01/24 06:17:31;;;;;;;13.30;8.40;;;0.70;97.40;;;1.18;65.49;99143.34;5085579;28;20055;-37
2022/01/24 06:19:59;;;;;;;17.03;8.53;;;0.70;97.60;;;1.18;65.85;99137.22;5086374;28;20052;-37
2022/01/24 06:22:27;;;;;;;13.20;8.47;;;0.70;98.90;;;1.20;65.49;99131.91;5085292;28;20557;-37
2022/01/24 06:24:54;;;;;;;14.67;9.70;;;0.80;99.70;;;1.20;65.97;99131.91;5085239;28;20048;-36
2022/01/24 06:27:40;;;;;;;12.23;9.37;;;0.70;99.40;;;1.17;66.05;99135.53;5086340;28;20062;-37
2022/01/24 06:30:09;;;;;;;15.73;8.90;;;0.70;99.90;;;1.15;65.95;99134.75;5087297;28;20063;-37
2022/01/24 06:32:38;;;;;;;12.93;9.13;;;0.70;99.90;;;1.17;66.09;99135.53;5087832;28;20227;-37
2022/01/24 06:35:09;;;;;;;13.63;9.07;;;0.70;99.90;;;1.18;66.16;99131.97;5089814;28;20061;-37
2022/01/24 06:37:38;;;;;;;17.43;12.20;;;0.70;99.90;;;1.21;65.97;99137.09;5089253;28;20258;-36
2022/01/24 06:40:09;;;;;;;16.27;10.30;;;0.80;99.90;;;1.23;66.20;99132.63;5089518;28;20048;-36
2022/01/24 06:42:38;;;;;;;15.33;8.60;;;0.80;99.90;;;1.25;66.21;99133.44;5088822;28;20056;-37
2022/01/24 06:45:08;;;;;;;17.07;10.13;;;0.80;99.90;;;1.28;66.79;99132.44;5089440;28;20354;-37
2022/01/24 06:47:36;;;;;;;14.53;9.40;;;0.90;99.90;;;1.34;66.67;99134.81;5090443;28;20058;-37
2022/01/24 06:50:06;;;;;;;15.27;9.33;;;1.00;99.90;;;1.40;67.03;99142.41;5089182;28;20050;-37
2022/01/24 06:52:34;;;;;;;14.40;9.20;;;1.10;99.90;;;1.45;66.73;99137.78;5071491;28;20058;-37
2022/01/24 06:55:03;;;;;;;19.20;10.10;;;1.10;99.90;;;1.48;66.76;99150.78;5088597;28;20062;-37
2022/01/24 06:57:30;;;;;;;13.70;8.57;;;1.10;99.90;;;1.50;67.09;99156.81;5088412;28;20044;-37
2022/01/24 06:59:58;;;;;;;13.80;9.00;;;1.20;99.90;;;1.55;66.92;99152.25;5088210;28;20050;-37
2022/01/24 07:02:26;;;;;;;16.13;9.67;;;1.20;99.90;;;1.56;66.80;99153.94;5088993;28;20256;-37
2022/01/24 07:04:54;;;;;;;20.07;11.87;;;1.20;99.90;;;1.58;66.29;99157.34;5089678;28;20044;-37
2022/01/24 07:07:22;;;;;;;16.83;10.93;;;1.20;99.90;;;1.60;66.93;99161.69;5090062;28;20047;-37
2022/01/24 07:09:49;;;;;;;16.23;9.63;;;1.20;99.90;;;1.61;67.14;99176.50;5087573;28;20354;-37
2022/01/24 07:12:18;;;;;;;13.57;9.50;;;1.20;99.90;;;1.61;66.83;99174.75;5088330;28;20234;-37
2022/01/24 07:14:46;;;;;;;14.87;9.03;;;1.20;99.90;;;1.61;67.04;99174.75;5087297;28;20231;-37
2022/01/24 07:17:29;;;;;;;16.70;9.67;;;1.20;99.90;;;1.62;66.83;99180.84;5089437;28;20093;-38
2022/01/24 07:19:57;;;;;;;16.30;10.43;;;1.20;99.90;;;1.61;66.73;99174.75;5088839;28;20054;-37
2022/01/24 07:22:25;;;;;;;18.03;10.20;;;1.20;99.90;;;1.64;66.88;99182.47;5088744;28;20058;-37
2022/01/24 07:24:52;;;;;;;15.47;9.37;;;1.20;99.90;;;1.68;66.71;99188.44;5088899;28;20360;-37
2022/01/24 07:27:20;;;;;;;15.10;8.70;;;1.30;99.90;;;1.71;66.81;99180.44;5102910;28;20375;-37
2022/01/24 07:29:48;;;;;;;13.40;9.00;;;1.30;99.90;;;1.74;66.89;99198.66;5108270;28;20056;-37
2022/01/24 07:32:16;;;;;;;17.70;9.77;;;1.40;99.90;;;1.74;67.18;99196.03;5109057;28;20043;-37
2022/01/24 07:34:44;;;;;;;13.30;9.53;;;1.30;99.90;;;1.76;67.29;99191.56;5108534;28;20062;-37
2022/01/24 07:37:13;;;;;;;12.27;9.30;;;1.40;99.90;;;1.80;67.49;99187.88;5108213;28;20069;-37
2022/01/24 07:39:40;;;;;;;13.60;9.03;;;1.40;99.90;;;1.82;67.18;99191.28;5108486;28;20043;-37
2022/01/24 07:42:16;;;;;;;13.10;7.77;;;1.50;99.90;;;1.83;67.02;99193.00;5109157;28;20245;-37
2022/01/24 07:44:46;;;;;;;13.63;8.50;;;1.50;99.90;;;1.85;67.02;99195.59;5105392;28;20056;-37
2022/01/24 07:47:14;;;;;;;16.70;9.63;;;1.50;99.90;;;1.86;67.18;99194.63;5107365;28;20051;-37
2022/01/24 07:49:41;;;;;;;13.97;8.50;;;1.50;99.90;;;1.91;67.43;99190.88;5108048;28;20058;-37
2022/01/24 07:52:09;;;;;;;14.10;8.97;;;1.60;99.90;;;1.94;67.37;99196.03;5107065;28;20048;-37
2022/01/24 07:54:37;;;;;;;17.47;9.53;;;1.60;99.90;;;1.96;67.55;99207.31;5108015;27;20055;-37
2022/01/24 07:57:06;;;;;;;14.90;9.90;;;1.60;99.90;;;1.97;67.38;99213.41;5107849;28;20059;-37
2022/01/24 07:59:33;;;;;;;16.93;10.83;;;1.70;99.90;;;2.00;67.70;99204.53;5108466;28;20055;-37
2022/01/24 08:02:01;;;;;;;17.80;11.37;;;1.70;99.90;;;2.04;67.76;99211.38;5108149;28;20065;-37
2022/01/24 08:04:30;;;;;;;17.13;9.73;;;1.80;99.90;;;2.06;67.25;99225.28;5108502;27;20238;-37
2022/01/24 08:06:57;;;;;;;16.47;10.13;;;1.80;99.90;;;2.11;67.71;99229.41;5107594;28;20047;-37
2022/01/24 08:09:25;;;;;;;14.10;9.50;;;1.90;99.90;;;2.17;67.54;99230.88;5107742;28;20056;-36
2022/01/24 08:11:54;;;;;;;15.17;9.97;;;1.90;99.90;;;2.20;67.75;99224.66;5107457;28;20048;-36
2022/01/24 08:14:22;;;;;;;13.70;10.07;;;1.90;99.90;;;2.21;67.13;99226.34;5107513;28;20387;-36
2022/01/24 08:16:50;;;;;;;20.43;10.80;;;1.90;99.90;;;2.21;67.73;99228.97;5107494;28;20055;-37
2022/01/24 08:19:18;;;;;;;16.23;10.00;;;1.90;99.90;;;2.23;67.44;99219.25;5107315;28;20063;-37
2022/01/24 08:21:45;;;;;;;17.07;10.50;;;1.90;99.90;;;2.24;67.71;99219.19;5106561;28;20055;-37
2022/01/24 08:24:13;;;;;;;20.73;11.00;;;2.00;99.90;;;2.27;67.68;99218.19;5106837;28;20242;-37
2022/01/24 08:26:41;;;;;;;15.80;10.53;;;2.00;99.90;;;2.28;67.86;99217.28;5106951;28;20052;-37
2022/01/24 08:29:09;;;;;;;17.53;10.83;;;1.90;99.90;;;2.30;67.68;99203.13;5107941;28;20719;-36
2022/01/24 08:31:37;;;;;;;14.60;8.93;;;2.00;99.90;;;2.35;67.85;99205.56;5106073;28;20254;-37
2022/01/24 08:34:05;;;;;;;12.00;8.27;;;2.10;99.90;;;2.40;67.72;99206.19;5107733;28;20047;-37
2022/01/24 08:36:34;;;;;;;13.07;9.20;;;2.20;99.90;;;2.45;67.62;99203.34;5108196;28;20618;-36
2022/01/24 08:39:08;;;;;;;18.30;9.80;;;2.20;99.90;;;2.50;67.71;99203.97;5107185;28;20059;-37
2022/01/24 08:41:56;;;;;;;14.37;9.87;;;2.30;99.90;;;2.53;67.54;99188.91;5106520;28;20311;-37
2022/01/24 08:45:44;;;;;;;14.93;9.27;;;2.30;99.90;;;2.56;67.68;99185.31;5106428;28;20203;-37
2022/01/24 08:47:29;;;;;;;14.07;9.30;;;2.30;99.90;;;2.61;67.54;99201.69;5108224;28;20257;-37
2022/01/24 08:50:11;;;;;;;14.87;9.40;;;2.40;99.90;;;2.66;67.23;99202.34;5107153;28;20337;-37
2022/01/24 08:52:38;;;;;;;16.70;10.03;;;2.50;99.90;;;2.73;67.56;99211.66;5107810;28;20051;-37
2022/01/24 08:55:14;;;;;;;14.80;9.53;;;2.50;99.90;;;2.77;67.73;99214.94;5104488;28;20055;-37
2022/01/24 08:57:41;;;;;;;15.57;9.77;;;2.50;99.90;;;2.80;67.15;99221.88;5107154;27;20074;-37
2022/01/24 09:00:10;;;;;;;12.20;9.10;;;2.60;99.90;;;2.82;67.49;99212.97;5111545;27;20061;-37
2022/01/24 09:02:38;;;;;;;15.87;9.67;;;2.60;99.90;;;2.86;67.46;99213.66;5116806;27;20043;-37
2022/01/24 09:05:07;;;;;;;14.20;9.77;;;2.60;99.90;;;2.89;67.42;99213.50;5112868;28;20046;-37
2022/01/24 09:07:36;;;;;;;14.03;9.00;;;2.60;99.90;;;2.90;68.17;99209.97;5117091;28;20051;-37
2022/01/24 09:10:07;;;;;;;14.40;9.17;;;2.70;99.90;;;2.94;67.50;99214.13;5119259;28;20047;-37
2022/01/24 09:12:35;;;;;;;16.87;8.70;;;2.70;99.90;;;2.98;67.80;99213.06;5115895;28;20047;-37
2022/01/24 09:15:04;;;;;;;15.43;9.70;;;2.70;99.90;;;3.04;67.51;99220.66;5117335;28;20052;-37
2022/01/24 09:17:38;;;;;;;15.10;9.67;;;2.80;99.90;;;3.09;67.35;99226.53;5115620;28;20364;-37
2022/01/24 09:20:08;;;;;;;14.13;9.27;;;2.80;99.90;;;3.14;67.15;99224.56;5117648;28;20066;-37
2022/01/24 09:22:45;;;;;;;14.33;9.77;;;2.90;99.90;;;3.17;67.11;99215.63;5118313;28;20047;-37
2022/01/24 09:25:15;;;;;;;12.33;8.93;;;3.00;99.90;;;3.20;67.19;99215.50;5119214;28;20227;-37
2022/01/24 09:27:46;;;;;;;15.93;9.90;;;3.00;99.90;;;3.25;67.14;99224.00;5119562;28;20046;-37
2022/01/24 09:30:18;;;;;;;15.47;9.43;;;3.00;99.90;;;3.27;67.19;99224.78;5119547;28;20042;-37
2022/01/24 09:32:47;;;;;;;16.53;9.87;;;3.00;99.10;;;3.31;67.17;99220.22;5119246;28;20047;-37
2022/01/24 09:35:16;;;;;;;16.53;10.13;;;3.10;98.80;;;3.37;67.35;99216.44;5100887;28;20051;-36
2022/01/24 09:37:46;;;;;;;13.63;9.33;;;3.20;98.80;;;3.41;67.54;99213.53;5118227;28;20044;-36
2022/01/24 09:40:16;;;;;;;14.03;9.30;;;3.20;97.60;;;3.46;67.05;99218.59;5119784;28;20372;-36
2022/01/24 09:42:46;;;;;;;16.47;9.90;;;3.30;97.40;;;3.49;66.80;99221.06;5118566;28;20056;-36
2022/01/24 09:45:17;;;;;;;15.97;9.57;;;3.30;97.60;;;3.50;66.75;99215.72;5119089;28;20039;-37
2022/01/24 09:47:45;;;;;;;15.07;9.60;;;3.30;96.20;;;3.52;66.61;99223.53;5118949;28;20046;-36
2022/01/24 09:50:16;;;;;;;16.77;10.70;;;3.30;95.90;;;3.55;66.67;99224.25;5119993;28;20054;-36
2022/01/24 09:52:45;;;;;;;15.80;10.27;;;3.30;95.90;;;3.58;66.58;99217.97;5118749;28;20050;-36
2022/01/24 09:55:15;;;;;;;19.63;12.87;;;3.40;95.50;;;3.58;66.84;99217.97;5119538;28;20054;-36
2022/01/24 09:57:47;;;;;;;17.10;12.13;;;3.30;95.40;;;3.58;66.09;99223.22;5098836;28;20051;-36
2022/01/24 10:00:21;;;;;;;15.97;11.37;;;3.30;95.20;;;3.56;66.84;99222.47;5119575;28;20053;-36
2022/01/24 10:02:51;;;;;;;17.03;10.67;;;3.30;95.20;;;3.55;66.05;99226.03;5118807;28;20047;-37
2022/01/24 10:05:37;;;;;;;18.63;11.10;;;3.20;95.20;;;3.53;66.59;99226.09;5116818;28;20183;-36
2022/01/24 10:08:27;;;;;;;17.33;9.53;;;3.20;95.40;;;3.50;66.20;99226.25;5119408;28;20074;-36
2022/01/24 10:11:01;;;;;;;20.20;10.80;;;3.20;95.60;;;3.50;66.05;99230.69;5122069;28;20348;-36
2022/01/24 10:16:43;;;;;;;14.50;10.03;;;3.10;96.70;;;3.49;66.42;99229.84;5121788;28;20047;-36
2022/01/24 10:19:29;;;;;;;14.32;9.32;;;3.20;97.70;;;3.51;66.13;99225.34;5121728;28;20065;-37
2022/01/24 10:22:04;;;;;;;13.07;8.07;;;3.20;97.10;;;3.55;66.38;99221.63;5115347;28;20056;-37
2022/01/24 10:24:38;;;;;;;12.63;9.13;;;3.30;97.20;;;3.55;66.64;99218.97;5117015;28;20362;-36
2022/01/24 10:27:23;;;;;;;12.63;8.13;;;3.30;97.10;;;3.57;66.81;99213.63;5121895;28;20040;-37
2022/01/24 10:30:13;;;;;;;10.73;7.87;;;3.30;97.00;;;3.61;66.14;99211.72;5120475;28;20048;-37
2022/01/24 10:32:51;;;;;;;16.03;8.87;;;3.30;96.50;;;3.64;66.28;99203.63;5097985;28;20289;-37
2022/01/24 10:35:46;;;;;;;12.07;7.73;;;3.30;96.50;;;3.66;66.51;99196.50;5112944;28;20047;-37
2022/01/24 10:41:19;;;;;;;10.60;7.13;;;3.40;95.60;;;3.73;66.51;99196.09;5112246;28;20254;-37
2022/01/24 10:43:50;;;;;;;11.37;8.00;;;3.50;94.90;;;3.78;66.74;99187.09;5111009;28;20350;-37
2022/01/24 10:46:27;;;;;;;11.07;8.10;;;3.50;94.20;;;3.81;65.87;99190.44;5107165;28;20047;-37
2022/01/24 10:49:07;;;;;;;12.27;7.60;;;3.60;93.80;;;3.82;65.80;99181.59;5109715;28;20250;-37
2022/01/24 10:51:44;;;;;;;10.63;8.30;;;3.60;93.00;;;3.86;66.20;99179.66;5109258;28;20058;-37
2022/01/24 10:54:26;;;;;;;12.03;7.80;;;3.60;92.80;;;3.88;65.99;99177.78;5109960;28;20043;-37
2022/01/24 10:56:54;;;;;;;10.17;7.23;;;3.70;92.30;;;3.90;65.43;99174.13;5092933;28;20059;-37
2022/01/24 10:59:24;;;;;;;12.57;8.03;;;3.70;91.10;;;3.93;65.65;99173.13;5107362;28;20059;-37
2022/01/24 11:01:59;;;;;;;12.57;7.53;;;3.70;91.00;;;3.96;66.02;99172.13;5106901;28;20065;-37
2022/01/24 11:04:28;;;;;;;10.10;7.70;;;3.80;90.60;;;3.98;65.71;99171.09;5108816;28;20247;-37
2022/01/24 11:07:01;;;;;;;10.53;7.60;;;3.80;90.50;;;4.01;65.99;99173.53;5090414;28;20055;-37
2022/01/24 11:09:43;;;;;;;14.65;7.72;;;3.80;90.20;;;4.06;66.18;99165.41;5108458;28;20058;-37
2022/01/24 11:12:15;;;;;;;10.87;8.50;;;3.90;89.90;;;4.09;65.84;99165.22;5109980;28;20059;-37
2022/01/24 11:14:45;;;;;;;12.83;7.87;;;3.90;89.40;;;4.10;65.67;99165.16;5108806;28;20040;-38
2022/01/24 11:17:20;;;;;;;11.70;7.53;;;3.90;89.50;;;4.12;65.60;99163.28;5092277;28;20055;-37
2022/01/24 11:19:56;;;;;;;12.40;7.80;;;3.90;89.40;;;4.18;66.25;99169.16;5109183;28;20047;-37
2022/01/24 11:22:28;;;;;;;11.97;8.10;;;4.00;89.40;;;4.21;66.00;99166.38;5108840;28;20081;-37
2022/01/24 11:25:06;;;;;;;13.17;8.13;;;4.00;89.20;;;4.22;65.37;99161.00;5091548;28;20380;-37
2022/01/24 11:27:40;;;;;;;10.50;7.23;;;4.00;89.10;;;4.25;65.50;99171.38;5109355;28;20375;-37
2022/01/24 11:30:13;;;;;;;11.00;7.33;;;4.10;89.30;;;4.29;65.64;99166.78;5109236;28;20356;-37
2022/01/24 11:33:12;;;;;;;10.87;7.97;;;4.10;88.80;;;4.30;65.38;99164.06;5108860;28;20054;-37
2022/01/24 11:35:54;;;;;;;12.70;8.13;;;4.20;87.90;;;4.33;65.81;99157.78;5101321;28;20063;-37
2022/01/24 11:38:43;;;;;;;12.13;8.47;;;4.20;88.80;;;4.38;65.53;99168.94;5108795;27;20082;-37
2022/01/24 11:41:26;;;;;;;11.53;7.43;;;4.20;88.10;;;4.41;65.39;99165.25;5108726;28;20423;-37
2022/01/24 11:44:06;;;;;;;9.60;7.10;;;4.30;88.20;;;4.44;65.13;99167.72;5108427;28;20043;-37
2022/01/24 11:46:48;;;;;;;9.97;7.00;;;4.30;88.50;;;4.48;65.32;99166.63;5109848;28;20040;-40
2022/01/24 11:49:25;;;;;;;10.10;7.00;;;4.30;87.50;;;4.51;65.04;99163.81;5108925;28;20039;-40
2022/01/24 11:52:11;;;;;;;13.23;8.20;;;4.40;87.70;;;4.57;65.01;99163.44;5108768;28;20051;-40
2022/01/24 11:55:13;;;;;;;8.47;6.57;;;4.40;87.20;;;4.61;65.27;99156.22;5107959;27;20059;-40
2022/01/24 11:57:46;;;;;;;10.70;6.30;;;4.50;87.30;;;4.62;65.78;99158.78;5109222;28;20081;-40
2022/01/24 12:00:21;;;;;;;11.00;6.83;;;4.50;86.80;;;4.68;65.14;99152.31;5106987;28;20047;-40
2022/01/24 12:02:52;;;;;;;;;;;4.60;86.50;;;4.69;65.20;99152.22;5107560;28;20070;-40
2022/01/24 12:05:39;;;;;;;7.87;5.80;;;4.60;84.70;;;4.76;65.42;99163.28;5108193;28;19923;-40
2022/01/24 12:08:10;;;;;;;7.30;5.57;;;4.60;85.60;;;4.81;65.03;99150.69;5108993;28;20543;-40
2022/01/24 12:11:29;;;;;;;13.43;6.70;;;4.70;85.40;;;4.82;63.60;99147.09;5108586;28;20048;-40
2022/01/24 12:14:14;;;;;;;10.67;6.30;;;4.80;83.60;;;4.89;64.80;99150.22;5106970;28;20224;-40
2022/01/24 12:16:45;;;;;;;10.13;6.90;;;4.80;84.10;;;4.94;64.82;99148.16;5107992;28;20061;-40
2022/01/24 12:19:13;;;;;;;7.90;5.87;;;4.90;83.90;;;4.98;64.26;99140.91;5107892;28;20051;-40
2022/01/24 12:21:42;;;;;;;7.37;5.43;;;4.90;83.70;;;5.02;64.30;99137.16;5106995;28;20051;-40